createdAt,value
2018-09-23T00:00:15.094Z,12.90
2018-09-23T00:02:43.998Z,12.90
2018-09-23T00:05:12.939Z,12.90
2018-09-23T00:07:41.914Z,12.90
2018-09-23T00:10:10.938Z,13.00
2018-09-23T00:12:40.014Z,12.90
2018-09-23T00:15:09.182Z,12.90
2018-09-23T00:17:38.142Z,12.90
2018-09-23T00:20:07.214Z,12.90
2018-09-23T00:22:36.239Z,12.90
2018-09-23T00:25:05.446Z,12.90
2018-09-23T00:27:34.382Z,12.90
2018-09-23T00:30:03.380Z,12.90
2018-09-23T00:32:32.326Z,12.90
2018-09-23T00:35:01.287Z,12.90
2018-09-23T00:37:30.262Z,12.80
2018-09-23T00:39:59.189Z,12.80
2018-09-23T00:42:28.181Z,12.80
2018-09-23T00:44:57.153Z,12.90
2018-09-23T00:47:26.082Z,12.90
2018-09-23T00:49:55.126Z,12.90
2018-09-23T00:52:26.304Z,12.90
2018-09-23T00:54:55.249Z,12.90
2018-09-23T00:57:24.255Z,12.90
2018-09-23T00:59:53.201Z,12.80
2018-09-23T01:02:22.098Z,12.80
2018-09-23T01:04:51.057Z,12.80
2018-09-23T01:07:20.034Z,12.80
2018-09-23T01:09:49.138Z,12.80
2018-09-23T01:12:18.105Z,12.80
2018-09-23T01:14:47.109Z,12.80
2018-09-23T01:17:16.462Z,12.80
2018-09-23T01:19:45.410Z,12.80
2018-09-23T01:22:14.405Z,12.80
2018-09-23T01:24:43.342Z,12.80
2018-09-23T01:27:12.254Z,12.80
2018-09-23T01:29:41.274Z,12.70
2018-09-23T01:32:10.238Z,12.70
2018-09-23T01:34:39.186Z,12.70
2018-09-23T01:37:08.106Z,12.70
2018-09-23T01:39:37.092Z,12.70
2018-09-23T01:42:06.600Z,12.70
2018-09-23T01:44:35.579Z,12.70
2018-09-23T01:47:04.558Z,12.70
2018-09-23T01:49:33.603Z,12.70
2018-09-23T01:52:02.542Z,12.70
2018-09-23T01:54:31.472Z,12.70
2018-09-23T01:57:00.418Z,12.70
2018-09-23T01:59:29.802Z,12.70
2018-09-23T02:01:58.823Z,12.70
2018-09-23T02:04:27.749Z,12.60
2018-09-23T02:06:56.710Z,12.60
2018-09-23T02:09:25.675Z,12.60
2018-09-23T02:11:54.624Z,12.50
2018-09-23T02:14:23.569Z,12.50
2018-09-23T02:17:01.644Z,12.50
2018-09-23T02:19:30.658Z,12.50
2018-09-23T02:21:59.670Z,12.50
2018-09-23T02:24:28.693Z,12.50
2018-09-23T02:26:57.582Z,12.50
2018-09-23T02:29:26.565Z,12.40
2018-09-23T02:31:55.590Z,12.40
2018-09-23T02:34:24.519Z,12.40
2018-09-23T02:36:53.478Z,12.40
2018-09-23T02:39:22.414Z,12.40
2018-09-23T02:41:51.347Z,12.40
2018-09-23T02:44:20.290Z,12.40
2018-09-23T02:46:49.224Z,12.40
2018-09-23T02:49:18.163Z,12.30
2018-09-23T02:51:47.090Z,12.30
2018-09-23T02:54:16.104Z,12.40
2018-09-23T02:56:45.038Z,12.30
2018-09-23T02:59:13.930Z,12.40
2018-09-23T03:01:42.874Z,12.40
2018-09-23T03:04:12.917Z,12.40
2018-09-23T03:06:41.898Z,12.40
2018-09-23T03:09:10.926Z,12.40
2018-09-23T03:11:39.922Z,12.40
2018-09-23T03:14:08.942Z,12.30
2018-09-23T03:16:37.950Z,12.30
2018-09-23T03:19:06.890Z,12.30
2018-09-23T03:21:35.832Z,12.30
2018-09-23T03:24:04.786Z,12.30
2018-09-23T03:26:33.735Z,12.30
2018-09-23T03:29:02.659Z,12.20
2018-09-23T03:31:31.634Z,12.30
2018-09-23T03:34:00.631Z,12.30
2018-09-23T03:36:29.593Z,12.20
2018-09-23T03:38:58.550Z,12.20
2018-09-23T03:41:27.598Z,12.30
2018-09-23T03:43:56.537Z,12.30
2018-09-23T03:46:25.517Z,12.30
2018-09-23T03:48:54.478Z,12.20
2018-09-23T03:51:23.406Z,12.30
2018-09-23T03:53:52.307Z,12.20
2018-09-23T03:56:21.429Z,12.20
2018-09-23T03:58:50.373Z,12.20
2018-09-23T04:01:19.245Z,12.20
2018-09-23T04:03:57.169Z,12.20
2018-09-23T04:06:26.113Z,12.20
2018-09-23T04:08:55.138Z,12.30
2018-09-23T04:11:24.183Z,12.30
2018-09-23T04:13:53.170Z,12.20
2018-09-23T04:16:22.081Z,12.20
2018-09-23T04:18:51.082Z,12.30
2018-09-23T04:21:20.131Z,12.20
2018-09-23T04:23:49.061Z,12.30
2018-09-23T04:26:18.009Z,12.30
2018-09-23T04:28:47.002Z,12.40
2018-09-23T04:31:15.930Z,12.40
2018-09-23T04:33:44.870Z,12.40
2018-09-23T04:36:13.797Z,12.40
2018-09-23T04:38:42.762Z,12.40
2018-09-23T04:41:11.763Z,12.40
2018-09-23T04:43:40.681Z,12.50
2018-09-23T04:46:09.938Z,12.40
2018-09-23T04:48:38.830Z,12.40
2018-09-23T04:51:07.801Z,12.40
2018-09-23T04:53:36.802Z,12.40
2018-09-23T04:56:05.798Z,12.40
2018-09-23T04:58:34.794Z,12.40
2018-09-23T05:01:03.742Z,12.50
2018-09-23T05:03:32.709Z,12.40
2018-09-23T05:06:01.682Z,12.50
2018-09-23T05:08:30.602Z,12.50
2018-09-23T05:10:59.608Z,12.50
2018-09-23T05:13:28.577Z,12.50
2018-09-23T05:15:57.502Z,12.50
2018-09-23T05:18:26.458Z,12.50
2018-09-23T05:20:55.405Z,12.50
2018-09-23T05:23:24.250Z,12.50
2018-09-23T05:25:53.194Z,12.50
2018-09-23T05:28:22.170Z,12.50
2018-09-23T05:30:51.054Z,12.50
2018-09-23T05:33:20.142Z,12.60
2018-09-23T05:35:49.137Z,12.60
2018-09-23T05:38:18.102Z,12.60
2018-09-23T05:40:47.029Z,12.60
2018-09-23T05:43:15.975Z,12.60
2018-09-23T05:45:44.973Z,12.60
2018-09-23T05:48:13.922Z,12.60
2018-09-23T05:50:42.825Z,12.60
2018-09-23T05:53:11.849Z,12.70
2018-09-23T05:55:40.758Z,12.70
2018-09-23T05:58:09.690Z,12.70
2018-09-23T06:00:45.309Z,12.70
2018-09-23T06:03:14.334Z,12.70
2018-09-23T06:05:43.257Z,12.70
2018-09-23T06:08:12.249Z,12.70
2018-09-23T06:10:41.253Z,12.70
2018-09-23T06:13:10.265Z,12.70
2018-09-23T06:15:39.200Z,12.80
2018-09-23T06:18:08.038Z,12.80
2018-09-23T06:20:37.126Z,12.80
2018-09-23T06:23:06.051Z,12.80
2018-09-23T06:25:35.138Z,12.90
2018-09-23T06:28:04.278Z,12.90
2018-09-23T06:30:33.259Z,12.90
2018-09-23T06:33:02.181Z,13.00
2018-09-23T06:35:31.106Z,13.00
2018-09-23T06:38:00.074Z,13.00
2018-09-23T06:40:29.149Z,13.00
2018-09-23T06:42:58.053Z,13.00
2018-09-23T06:45:26.970Z,13.00
2018-09-23T06:47:55.944Z,13.10
2018-09-23T06:50:24.963Z,13.10
2018-09-23T06:52:53.973Z,13.10
2018-09-23T06:55:23.023Z,13.10
2018-09-23T06:57:51.965Z,13.20
2018-09-23T07:00:20.830Z,13.20
2018-09-23T07:02:49.792Z,13.20
2018-09-23T07:05:18.726Z,13.20
2018-09-23T07:07:47.641Z,13.20
2018-09-23T07:10:16.775Z,13.30
2018-09-23T07:12:45.709Z,13.30
2018-09-23T07:15:14.650Z,13.30
2018-09-23T07:17:43.814Z,13.30
2018-09-23T07:20:19.450Z,13.40
2018-09-23T07:22:48.686Z,13.40
2018-09-23T07:25:17.742Z,13.40
2018-09-23T07:27:46.682Z,13.50
2018-09-23T07:30:15.991Z,13.50
2018-09-23T07:32:44.961Z,13.50
2018-09-23T07:35:14.014Z,13.60
2018-09-23T07:37:43.094Z,13.60
2018-09-23T07:40:12.090Z,13.60
2018-09-23T07:42:41.037Z,13.70
2018-09-23T07:45:10.018Z,13.80
2018-09-23T07:47:39.090Z,13.80
2018-09-23T07:50:08.085Z,13.80
2018-09-23T07:52:37.101Z,13.80
2018-09-23T07:55:10.535Z,13.80
2018-09-23T07:57:39.473Z,13.90
2018-09-23T08:00:08.470Z,13.80
2018-09-23T08:02:37.495Z,13.80
2018-09-23T08:05:06.939Z,13.90
2018-09-23T08:07:35.942Z,14.00
2018-09-23T08:10:05.193Z,14.00
2018-09-23T08:12:34.440Z,14.00
2018-09-23T08:15:03.466Z,14.00
2018-09-23T08:17:32.090Z,14.00
2018-09-23T08:20:09.706Z,14.10
2018-09-23T08:22:43.993Z,14.10
2018-09-23T08:25:20.497Z,14.10
2018-09-23T08:27:54.938Z,14.20
2018-09-23T08:30:29.402Z,14.20
2018-09-23T08:33:03.960Z,14.20
2018-09-23T08:35:44.983Z,14.30
2018-09-23T08:38:25.238Z,14.30
2018-09-23T08:40:59.898Z,14.30
2018-09-23T08:43:45.358Z,14.30
2018-09-23T08:46:19.734Z,14.30
2018-09-23T08:49:10.730Z,14.40
2018-09-23T08:51:45.011Z,14.30
2018-09-23T08:54:19.378Z,14.30
2018-09-23T08:56:53.929Z,14.30
2018-09-23T08:59:28.298Z,14.30
2018-09-23T09:02:02.658Z,14.40
2018-09-23T09:04:36.986Z,14.50
2018-09-23T09:09:32.018Z,14.60
2018-09-23T09:12:07.431Z,14.70
2018-09-23T09:14:36.449Z,14.80
2018-09-23T09:17:05.247Z,14.80
2018-09-23T09:19:33.966Z,14.80
2018-09-23T09:22:02.679Z,14.90
2018-09-23T09:24:49.601Z,14.80
2018-09-23T09:27:18.373Z,14.90
2018-09-23T09:29:47.231Z,14.90
2018-09-23T09:32:16.058Z,15.00
2018-09-23T09:34:44.769Z,15.10
2018-09-23T09:37:13.485Z,15.20
2018-09-23T09:39:42.360Z,15.10
2018-09-23T09:42:11.114Z,15.10
2018-09-23T09:44:39.826Z,15.10
2018-09-23T09:47:09.051Z,15.10
2018-09-23T09:49:37.856Z,15.00
2018-09-23T09:52:17.880Z,15.10
2018-09-23T09:54:47.508Z,15.20
2018-09-23T09:57:17.157Z,15.20
2018-09-23T09:59:46.775Z,15.30
2018-09-23T10:02:17.744Z,15.30
2018-09-23T10:04:46.518Z,15.40
2018-09-23T10:07:15.351Z,15.40
2018-09-23T10:09:44.187Z,15.40
2018-09-23T10:12:13.027Z,15.40
2018-09-23T10:14:41.870Z,15.40
2018-09-23T10:17:10.699Z,15.40
2018-09-23T10:19:39.674Z,15.50
2018-09-23T10:22:09.643Z,15.60
2018-09-23T10:24:38.454Z,15.70
2018-09-23T10:27:07.274Z,15.80
2018-09-23T10:29:36.140Z,15.80
2018-09-23T10:32:05.136Z,15.80
2018-09-23T10:34:33.858Z,15.80
2018-09-23T10:37:02.590Z,15.80
2018-09-23T10:39:31.310Z,15.90
2018-09-23T10:42:00.274Z,15.90
2018-09-23T10:44:29.012Z,15.90
2018-09-23T10:49:33.018Z,16.00
2018-09-23T10:52:02.882Z,16.00
2018-09-23T10:54:31.734Z,16.00
2018-09-23T10:57:00.551Z,16.10
2018-09-23T10:59:39.325Z,16.20
2018-09-23T11:02:08.134Z,16.30
2018-09-23T11:04:37.015Z,16.30
2018-09-23T11:07:06.034Z,16.30
2018-09-23T11:09:38.285Z,16.30
2018-09-23T11:12:07.006Z,16.30
2018-09-23T11:14:35.726Z,16.20
2018-09-23T11:17:04.482Z,16.10
2018-09-23T11:19:33.194Z,16.10
2018-09-23T11:22:01.891Z,16.10
2018-09-23T11:24:32.701Z,16.10
2018-09-23T11:27:01.605Z,16.10
2018-09-23T11:29:30.326Z,16.10
2018-09-23T11:31:59.061Z,16.10
2018-09-23T11:34:27.775Z,16.10
2018-09-23T11:36:58.568Z,16.20
2018-09-23T11:39:27.274Z,16.20
2018-09-23T11:41:55.990Z,16.30
2018-09-23T11:44:24.706Z,16.30
2018-09-23T11:46:53.423Z,16.30
2018-09-23T11:49:33.105Z,16.20
2018-09-23T11:52:01.821Z,16.20
2018-09-23T11:54:30.543Z,16.20
2018-09-23T11:56:59.290Z,16.30
2018-09-23T11:59:28.005Z,16.40
2018-09-23T12:01:58.446Z,16.50
2018-09-23T12:04:27.213Z,16.60
2018-09-23T12:06:55.927Z,16.70
2018-09-23T12:09:24.827Z,16.90
2018-09-23T12:11:53.639Z,17.00
2018-09-23T12:14:22.462Z,17.10
2018-09-23T12:16:51.187Z,17.20
2018-09-23T12:19:19.906Z,17.30
2018-09-23T12:21:48.670Z,17.40
2018-09-23T12:24:25.115Z,17.60
2018-09-23T12:26:53.838Z,17.60
2018-09-23T12:29:22.570Z,17.70
2018-09-23T12:31:51.302Z,17.70
2018-09-23T12:34:26.722Z,17.60
2018-09-23T12:36:55.446Z,17.60
2018-09-23T12:39:24.224Z,17.60
2018-09-23T12:41:52.922Z,17.70
2018-09-23T12:44:32.443Z,17.70
2018-09-23T12:47:01.239Z,17.90
2018-09-23T12:49:30.038Z,17.90
2018-09-23T12:51:59.106Z,18.00
2018-09-23T12:54:44.798Z,18.20
2018-09-23T12:57:13.629Z,18.30
2018-09-23T12:59:42.475Z,18.40
2018-09-23T13:02:11.327Z,18.40
2018-09-23T13:04:40.138Z,18.40
2018-09-23T13:07:09.021Z,18.50
2018-09-23T13:09:37.831Z,18.60
2018-09-23T13:12:06.687Z,18.60
2018-09-23T13:14:35.548Z,18.70
2018-09-23T13:17:04.299Z,18.80
2018-09-23T13:19:33.204Z,18.90
2018-09-23T13:22:02.058Z,19.00
2018-09-23T13:24:30.871Z,19.20
2018-09-23T13:26:59.708Z,19.20
2018-09-23T13:29:28.553Z,19.30
2018-09-23T13:34:55.981Z,19.40
2018-09-23T13:37:24.732Z,19.50
2018-09-23T13:39:53.430Z,19.50
2018-09-23T13:42:22.141Z,19.50
2018-09-23T13:44:50.846Z,19.50
2018-09-23T13:47:19.557Z,19.40
2018-09-23T13:49:48.278Z,19.30
2018-09-23T13:52:16.990Z,19.30
2018-09-23T13:54:45.697Z,19.30
2018-09-23T13:57:14.426Z,19.30
2018-09-23T13:59:43.130Z,19.30
2018-09-23T14:02:18.692Z,19.40
2018-09-23T14:04:47.427Z,19.40
2018-09-23T14:07:16.130Z,19.40
2018-09-23T14:09:45.022Z,19.40
2018-09-23T14:12:13.827Z,19.40
2018-09-23T14:14:42.538Z,19.30
2018-09-23T14:17:11.289Z,19.30
2018-09-23T14:19:40.158Z,19.30
2018-09-23T14:22:08.877Z,18.80
2018-09-23T14:24:37.613Z,17.60
2018-09-23T14:27:06.619Z,16.60
2018-09-23T14:29:35.386Z,16.00
2018-09-23T14:32:04.298Z,15.70
2018-09-23T14:34:33.046Z,15.50
2018-09-23T14:37:02.665Z,15.40
2018-09-23T14:39:31.605Z,15.10
2018-09-23T14:42:00.437Z,14.90
2018-09-23T14:44:29.118Z,14.70
2018-09-23T14:46:57.863Z,14.50
2018-09-23T14:49:26.618Z,14.40
2018-09-23T14:51:55.498Z,14.20
2018-09-23T14:54:24.428Z,14.10
2018-09-23T14:56:53.235Z,14.00
2018-09-23T14:59:22.055Z,13.90
2018-09-23T15:01:50.867Z,13.80
2018-09-23T15:04:20.027Z,13.80
2018-09-23T15:06:48.844Z,13.80
2018-09-23T15:09:17.739Z,13.90
2018-09-23T15:11:46.556Z,13.80
2018-09-23T15:14:15.719Z,13.80
2018-09-23T15:16:44.527Z,13.80
2018-09-23T15:19:13.334Z,13.80
2018-09-23T15:21:42.118Z,13.70
2018-09-23T15:24:10.829Z,13.70
2018-09-23T15:26:39.650Z,13.50
2018-09-23T15:29:08.438Z,13.50
2018-09-23T15:31:37.159Z,13.50
2018-09-23T15:34:05.913Z,13.40
2018-09-23T15:36:34.802Z,13.40
2018-09-23T15:39:05.126Z,13.30
2018-09-23T15:41:33.838Z,13.20
2018-09-23T15:44:02.562Z,13.20
2018-09-23T15:49:22.649Z,13.10
2018-09-23T15:51:55.457Z,13.00
2018-09-23T15:54:36.154Z,12.90
2018-09-23T15:57:04.890Z,12.90
2018-09-23T15:59:33.627Z,12.80
2018-09-23T16:02:02.382Z,12.80
2018-09-23T16:04:31.085Z,12.70
2018-09-23T16:06:59.982Z,12.70
2018-09-23T16:09:28.715Z,12.70
2018-09-23T16:11:57.443Z,12.60
2018-09-23T16:14:26.201Z,12.60
2018-09-23T16:16:54.964Z,12.50
2018-09-23T16:19:23.750Z,12.40
2018-09-23T16:21:52.503Z,12.40
2018-09-23T16:24:21.219Z,12.40
2018-09-23T16:26:49.949Z,12.30
2018-09-23T16:29:18.681Z,12.30
2018-09-23T16:31:47.587Z,12.20
2018-09-23T16:34:16.257Z,12.20
2018-09-23T16:36:44.988Z,12.20
2018-09-23T16:39:13.690Z,12.20
2018-09-23T16:41:42.398Z,12.10
2018-09-23T16:44:11.197Z,12.10
2018-09-23T16:46:39.930Z,12.00
2018-09-23T16:49:08.649Z,12.00
2018-09-23T16:51:39.681Z,12.00
2018-09-23T16:54:08.410Z,11.90
2018-09-23T16:56:37.147Z,11.80
2018-09-23T16:59:05.870Z,11.80
2018-09-23T17:01:34.593Z,11.70
2018-09-23T17:04:03.289Z,11.60
2018-09-23T17:06:32.035Z,11.50
2018-09-23T17:09:00.745Z,11.50
2018-09-23T17:11:29.457Z,11.40
2018-09-23T17:13:58.181Z,11.40
2018-09-23T17:16:26.929Z,11.30
2018-09-23T17:18:55.723Z,11.30
2018-09-23T17:21:32.060Z,11.20
2018-09-23T17:24:01.059Z,11.20
2018-09-23T17:26:29.911Z,11.20
2018-09-23T17:28:58.734Z,11.20
2018-09-23T17:31:27.550Z,11.20
2018-09-23T17:33:56.346Z,11.10
2018-09-23T17:36:25.225Z,11.10
2018-09-23T17:38:54.100Z,11.00
2018-09-23T17:41:22.915Z,11.00
2018-09-23T17:43:51.839Z,11.00
2018-09-23T17:46:20.633Z,11.00
2018-09-23T17:48:54.491Z,10.90
2018-09-23T17:51:23.277Z,10.90
2018-09-23T17:53:52.090Z,10.90
2018-09-23T17:56:20.956Z,10.90
2018-09-23T17:58:49.754Z,10.90
2018-09-23T18:01:18.599Z,10.90
2018-09-23T18:03:47.429Z,10.80
2018-09-23T18:06:16.282Z,10.80
2018-09-23T18:08:45.079Z,10.80
2018-09-23T18:11:13.938Z,10.70
2018-09-23T18:13:43.854Z,10.70
2018-09-23T18:16:12.691Z,10.70
2018-09-23T18:18:41.554Z,10.70
2018-09-23T18:21:10.492Z,10.70
2018-09-23T18:23:39.355Z,10.60
2018-09-23T18:26:08.163Z,10.60
2018-09-23T18:28:44.631Z,10.60
2018-09-23T18:31:13.382Z,10.60
2018-09-23T18:33:42.093Z,10.60
2018-09-23T18:36:10.802Z,10.50
2018-09-23T18:38:39.517Z,10.40
2018-09-23T18:41:08.232Z,10.20
2018-09-23T18:43:36.954Z,10.10
2018-09-23T18:46:05.775Z,10.10
2018-09-23T18:48:34.693Z,10.00
2018-09-23T18:51:07.658Z,10.00
2018-09-23T18:53:37.471Z,9.90
2018-09-23T18:56:06.242Z,9.90
2018-09-23T18:58:39.315Z,9.90
2018-09-23T19:01:13.706Z,9.90
2018-09-23T19:03:42.557Z,9.80
2018-09-23T19:06:11.350Z,9.80
2018-09-23T19:08:40.155Z,9.80
2018-09-23T19:11:08.955Z,9.70
2018-09-23T19:13:43.303Z,9.70
2018-09-23T19:16:17.619Z,9.70
2018-09-23T19:18:48.455Z,9.70
2018-09-23T19:21:17.206Z,9.70
2018-09-23T19:23:46.066Z,9.60
2018-09-23T19:26:14.862Z,9.60
2018-09-23T19:28:43.711Z,9.60
2018-09-23T19:31:12.578Z,9.50
2018-09-23T19:33:41.375Z,9.40
2018-09-23T19:36:10.193Z,9.40
2018-09-23T19:38:39.083Z,9.30
2018-09-23T19:41:08.144Z,9.30
2018-09-23T19:43:36.980Z,9.30
2018-09-23T19:46:10.837Z,9.20
2018-09-23T19:48:39.910Z,9.20
2018-09-23T19:51:08.722Z,9.20
2018-09-23T19:53:37.601Z,9.20
2018-09-23T19:56:06.494Z,9.20
2018-09-23T19:58:35.371Z,9.20
2018-09-23T20:01:04.168Z,9.20
2018-09-23T20:03:33.074Z,9.20
2018-09-23T20:06:01.922Z,9.20
2018-09-23T20:08:30.710Z,9.20
2018-09-23T20:10:59.543Z,9.20
2018-09-23T20:13:40.324Z,9.10
2018-09-23T20:16:09.112Z,9.10
2018-09-23T20:18:37.930Z,9.10
2018-09-23T20:21:06.749Z,9.10
2018-09-23T20:23:35.613Z,9.00
2018-09-23T20:26:04.487Z,9.00
2018-09-23T20:28:33.270Z,9.00
2018-09-23T20:31:08.447Z,9.00
2018-09-23T20:33:37.390Z,8.90
2018-09-23T20:36:06.312Z,8.90
2018-09-23T20:38:35.106Z,8.90
2018-09-23T20:41:03.903Z,8.90
2018-09-23T20:43:33.355Z,8.80
2018-09-23T20:46:02.162Z,8.80
2018-09-23T20:48:36.146Z,8.80
2018-09-23T20:51:05.023Z,8.80
2018-09-23T20:53:33.822Z,8.70
2018-09-23T20:56:02.626Z,8.70
2018-09-23T20:58:31.411Z,8.70
2018-09-23T21:01:00.155Z,8.70
2018-09-23T21:03:28.866Z,8.70
2018-09-23T21:05:57.649Z,8.60
2018-09-23T21:08:26.358Z,8.60
2018-09-23T21:10:55.054Z,8.60
2018-09-23T21:13:23.766Z,8.50
2018-09-23T21:15:52.483Z,8.50
2018-09-23T21:18:21.237Z,8.50
2018-09-23T21:20:49.974Z,8.50
2018-09-23T21:23:31.294Z,8.60
2018-09-23T21:26:00.034Z,8.60
2018-09-23T21:28:28.754Z,8.60
2018-09-23T21:30:57.454Z,8.70
2018-09-23T21:33:30.076Z,8.70
2018-09-23T21:35:58.767Z,8.80
2018-09-23T21:38:27.478Z,8.80
2018-09-23T21:40:56.181Z,8.80
2018-09-23T21:43:25.033Z,8.80
2018-09-23T21:45:53.926Z,8.80
2018-09-23T21:48:22.706Z,8.90
2018-09-23T21:50:51.434Z,8.90
2018-09-23T21:53:20.141Z,8.90
2018-09-23T21:55:48.858Z,8.90
2018-09-23T21:58:17.561Z,8.90
2018-09-23T22:00:46.274Z,8.90
2018-09-23T22:03:16.144Z,9.00
2018-09-23T22:05:44.828Z,9.00
2018-09-23T22:08:13.550Z,9.00
2018-09-23T22:10:42.262Z,9.00
2018-09-23T22:13:10.978Z,9.00
2018-09-23T22:15:39.689Z,9.10
2018-09-23T22:18:17.254Z,9.10
2018-09-23T22:20:46.074Z,9.10
2018-09-23T22:23:14.836Z,9.10
2018-09-23T22:25:43.538Z,9.10
2018-09-23T22:28:12.290Z,9.10
2018-09-23T22:30:41.046Z,9.10
2018-09-23T22:33:09.762Z,9.10
2018-09-23T22:35:40.603Z,9.00
2018-09-23T22:38:09.490Z,9.00
2018-09-23T22:40:38.308Z,9.00
2018-09-23T22:43:07.303Z,9.00
2018-09-23T22:45:36.090Z,8.90
2018-09-23T22:48:04.910Z,8.90
2018-09-23T22:50:33.739Z,8.90
2018-09-23T22:53:13.471Z,8.80
2018-09-23T22:55:42.614Z,8.80
2018-09-23T22:58:11.430Z,8.90
2018-09-23T23:00:40.204Z,8.90
2018-09-23T23:03:11.463Z,8.90
2018-09-23T23:05:40.162Z,8.90
2018-09-23T23:08:08.873Z,8.90
2018-09-23T23:10:37.591Z,8.90
2018-09-23T23:13:06.327Z,9.00
2018-09-23T23:15:35.118Z,9.00
2018-09-23T23:18:03.929Z,9.00
2018-09-23T23:20:32.877Z,9.00
2018-09-23T23:23:03.659Z,9.00
2018-09-23T23:25:32.514Z,9.00
2018-09-23T23:28:01.376Z,8.90
2018-09-23T23:30:38.968Z,8.90
2018-09-23T23:33:07.790Z,8.90
2018-09-23T23:35:36.554Z,8.80
2018-09-23T23:38:05.410Z,8.80
2018-09-23T23:40:34.125Z,8.80
2018-09-23T23:43:02.856Z,8.80
2018-09-23T23:45:31.571Z,8.80
2018-09-23T23:48:00.301Z,8.80
2018-09-23T23:50:29.018Z,8.70
2018-09-23T23:53:15.815Z,8.70
2018-09-23T23:55:44.551Z,8.70
2018-09-23T23:58:13.254Z,8.60
